Time;durP1;ratioP1;P1;durP2;ratioP2;P2;SDS_P1;SDS_P2;PMS_P1;PMS_P2;Temp;Humidity;BMP_temperature;BMP_pressure;BME280_temperature;BME280_humidity;BME280_pressure;Samples;Min_cycle;Max_cycle;Signal;HPM_P1;HPM_P2
2021/07/07 00:00:25;;;;;;;26.73;16.83;;;;;;;20.40;55.98;98834.65;125605;1093;103012;-74
2021/07/07 00:03:13;;;;;;;25.20;16.60;;;;;;;20.33;56.09;98833.69;125690;1093;102998;-75
2021/07/07 00:05:42;;;;;;;22.63;15.47;;;;;;;20.28;56.23;98841.48;125712;1093;102947;-75
2021/07/07 00:08:10;;;;;;;26.80;16.57;;;;;;;20.19;56.14;98841.54;125669;1093;103078;-73
2021/07/07 00:10:39;;;;;;;26.20;17.50;;;;;;;20.14;56.39;98837.70;125561;1092;102930;-74
2021/07/07 00:13:08;;;;;;;27.10;16.53;;;;;;;20.09;56.36;98838.26;125787;1093;103086;-73
2021/07/07 00:15:37;;;;;;;25.90;17.33;;;;;;;20.03;56.50;98833.57;125585;1095;103060;-73
2021/07/07 00:18:09;;;;;;;26.17;15.80;;;;;;;19.95;56.90;98839.02;125621;1095;102916;-73
2021/07/07 00:20:43;;;;;;;26.50;17.40;;;;;;;19.90;56.76;98845.78;125575;1094;103026;-73
2021/07/07 00:23:13;;;;;;;27.40;17.57;;;;;;;19.89;57.16;98846.80;125787;1094;103437;-73
2021/07/07 00:25:43;;;;;;;28.83;18.80;;;;;;;19.91;57.39;98843.94;125656;1093;102994;-73
2021/07/07 00:28:11;;;;;;;29.27;17.57;;;;;;;19.93;57.17;98850.83;125599;1093;102909;-72
2021/07/07 00:30:39;;;;;;;26.97;17.93;;;;;;;19.97;57.59;98845.08;125762;1093;103189;-73
2021/07/07 00:33:08;;;;;;;27.13;17.47;;;;;;;19.98;57.56;98847.58;125634;1093;102977;-73
2021/07/07 00:35:37;;;;;;;26.97;17.83;;;;;;;20.00;57.50;98844.72;125628;1096;102930;-72
2021/07/07 00:38:05;;;;;;;25.70;17.00;;;;;;;19.98;57.67;98844.88;125606;1095;103088;-73
2021/07/07 00:40:35;;;;;;;27.97;18.30;;;;;;;19.96;57.72;98846.09;125568;1096;103007;-73
2021/07/07 00:43:03;;;;;;;27.10;18.07;;;;;;;19.92;57.69;98848.32;125647;1095;103080;-73
2021/07/07 00:45:31;;;;;;;26.80;16.97;;;;;;;19.88;57.77;98844.27;125487;1095;102910;-72
2021/07/07 00:48:00;;;;;;;26.90;17.75;;;;;;;19.85;57.79;98845.44;125551;1095;103004;-73
2021/07/07 00:50:28;;;;;;;23.67;15.97;;;;;;;19.86;57.96;98849.81;125626;1096;103009;-73
2021/07/07 00:52:57;;;;;;;22.47;15.10;;;;;;;19.89;58.15;98845.97;125637;1096;103009;-74
2021/07/07 00:55:26;;;;;;;28.33;17.93;;;;;;;19.94;57.88;98851.69;125696;1096;103004;-74
2021/07/07 00:57:55;;;;;;;27.55;16.75;;;;;;;19.97;58.16;98848.59;125647;1095;102996;-73
2021/07/07 01:00:25;;;;;;;24.73;16.47;;;;;;;20.00;58.53;98847.42;125689;1096;103005;-73
2021/07/07 01:02:58;;;;;;;24.70;17.10;;;;;;;20.00;58.38;98852.82;125693;1095;103101;-74
2021/07/07 01:05:26;;;;;;;27.43;18.15;;;;;;;20.01;58.39;98847.23;125644;1096;102935;-73
2021/07/07 01:07:55;;;;;;;33.20;17.10;;;;;;;20.01;58.53;98849.92;125705;1094;102928;-73
2021/07/07 01:10:23;;;;;;;29.63;18.77;;;;;;;20.01;58.55;98844.53;125755;1095;103061;-75
2021/07/07 01:12:54;;;;;;;27.37;18.17;;;;;;;20.01;58.55;98841.83;125681;1093;102922;-75
2021/07/07 01:15:23;;;;;;;29.07;17.57;;;;;;;20.02;58.71;98846.20;125666;1093;103113;-74
2021/07/07 01:17:51;;;;;;;25.60;18.13;;;;;;;20.01;58.52;98849.10;125587;1093;102933;-74
2021/07/07 01:20:25;;;;;;;26.47;16.37;;;;;;;19.99;58.51;98835.77;125640;1095;103002;-74
2021/07/07 01:22:56;;;;;;;25.77;16.60;;;;;;;20.00;59.05;98839.32;125649;1095;102911;-75
2021/07/07 01:25:26;;;;;;;26.87;17.30;;;;;;;19.99;58.96;98832.24;125666;1096;102981;-74
2021/07/07 01:28:01;;;;;;;27.13;17.10;;;;;;;19.97;58.97;98832.41;126003;1096;102996;-74
2021/07/07 01:30:31;;;;;;;25.10;17.70;;;;;;;19.96;59.23;98828.05;125677;1096;103027;-75
2021/07/07 01:32:59;;;;;;;27.27;17.90;;;;;;;19.94;59.27;98838.19;125670;1093;102994;-74
2021/07/07 01:35:28;;;;;;;27.57;16.90;;;;;;;19.91;59.19;98838.54;125600;1093;103062;-75
2021/07/07 01:37:57;;;;;;;25.47;16.87;;;;;;;19.88;59.00;98838.86;125619;1093;103033;-76
2021/07/07 01:40:27;;;;;;;27.67;16.80;;;;;;;19.85;59.06;98829.24;125704;1093;103009;-76
2021/07/07 01:42:56;;;;;;;28.03;17.57;;;;;;;19.84;59.49;98841.05;125686;1093;103013;-75
2021/07/07 01:45:26;;;;;;;25.23;16.83;;;;;;;19.81;59.45;98837.89;125662;1093;103402;-74
2021/07/07 01:47:55;;;;;;;29.50;17.70;;;;;;;19.77;59.49;98837.38;125621;1093;102951;-74
2021/07/07 01:50:25;;;;;;;27.73;18.70;;;;;;;19.73;59.73;98836.08;125647;1091;102909;-74
2021/07/07 01:52:55;;;;;;;25.67;17.40;;;;;;;19.65;59.90;98834.24;125590;1093;103030;-73
2021/07/07 01:55:27;;;;;;;27.53;16.53;;;;;;;19.65;59.50;98839.64;125636;1093;103231;-76
2021/07/07 01:57:56;;;;;;;30.20;19.23;;;;;;;19.62;59.89;98846.23;125643;1093;103358;-73
2021/07/07 02:00:31;;;;;;;22.77;15.67;;;;;;;19.61;59.86;98846.40;125589;1093;102991;-73
2021/07/07 02:03:01;;;;;;;25.50;16.03;;;;;;;19.59;59.77;98840.34;125694;1093;102910;-73
2021/07/07 02:05:34;;;;;;;25.83;18.27;;;;;;;19.57;60.05;98842.38;125722;1092;102908;-75
2021/07/07 02:08:06;;;;;;;29.07;18.30;;;;;;;19.48;59.72;98839.73;125674;1093;103049;-75
2021/07/07 02:10:36;;;;;;;27.83;18.40;;;;;;;19.39;59.92;98837.22;125707;1093;102938;-77
2021/07/07 02:13:08;;;;;;;24.03;17.23;;;;;;;19.32;59.78;98843.33;125683;1093;103009;-76
2021/07/07 02:15:37;;;;;;;27.05;18.60;;;;;;;19.27;59.86;98837.62;125672;1092;102910;-75
2021/07/07 02:18:08;;;;;;;24.87;17.20;;;;;;;19.21;59.84;98848.23;125611;1094;103161;-75
2021/07/07 02:20:40;;;;;;;24.40;16.20;;;;;;;19.14;60.18;98843.56;125719;1094;103110;-75
2021/07/07 02:23:11;;;;;;;27.23;17.93;;;;;;;19.10;60.48;98844.91;125694;1094;102994;-75
2021/07/07 02:25:44;;;;;;;26.77;17.67;;;;;;;19.11;60.66;98845.73;125648;1096;102991;-76
2021/07/07 02:28:14;;;;;;;27.18;18.13;;;;;;;19.11;60.55;98845.73;125681;1096;102938;-76
2021/07/07 02:30:45;;;;;;;23.00;15.37;;;;;;;19.11;60.66;98848.44;125699;1096;102999;-76
2021/07/07 02:33:15;;;;;;;22.80;14.93;;;;;;;19.10;60.44;98847.61;125669;1096;103164;-74
2021/07/07 02:35:45;;;;;;;23.25;14.60;;;;;;;19.04;60.57;98851.81;125704;1096;103004;-75
2021/07/07 02:38:17;;;;;;;24.50;14.70;;;;;;;18.97;60.38;98852.69;125680;1095;102929;-74
2021/07/07 02:40:48;;;;;;;25.67;14.67;;;;;;;18.88;60.60;98852.66;125700;1096;102916;-75
2021/07/07 02:43:17;;;;;;;22.10;14.37;;;;;;;18.86;60.66;98851.98;125691;1096;103044;-73
2021/07/07 02:45:45;;;;;;;25.67;16.30;;;;;;;18.83;60.64;98856.89;125727;1096;102944;-74
2021/07/07 02:48:15;;;;;;;24.50;15.20;;;;;;;18.75;61.15;98853.19;125760;1095;102940;-73
2021/07/07 02:50:45;;;;;;;21.73;14.53;;;;;;;18.68;61.38;98854.05;125693;1096;102935;-74
2021/07/07 02:53:16;;;;;;;21.67;14.50;;;;;;;18.59;61.49;98856.73;125733;1095;103511;-74
2021/07/07 02:55:46;;;;;;;23.83;15.07;;;;;;;18.53;61.62;98859.27;125659;1093;103108;-74
2021/07/07 02:58:15;;;;;;;25.07;15.57;;;;;;;18.48;61.78;98862.45;125620;1093;102981;-74
2021/07/07 03:00:48;;;;;;;26.70;16.77;;;;;;;18.48;61.90;98861.63;125649;1093;102935;-75
2021/07/07 03:03:23;;;;;;;25.95;15.68;;;;;;;18.48;61.93;98858.93;125624;1093;103425;-74
2021/07/07 03:05:54;;;;;;;24.43;16.77;;;;;;;18.51;61.72;98862.12;125810;1091;102930;-74
2021/07/07 03:08:31;;;;;;;27.57;17.30;;;;;;;18.54;62.18;98859.09;125687;1093;103087;-74
2021/07/07 03:11:01;;;;;;;25.17;15.70;;;;;;;18.59;61.79;98854.05;125641;1093;103063;-74
2021/07/07 03:13:30;;;;;;;26.33;17.27;;;;;;;18.64;62.40;98850.00;125699;1093;103516;-74
2021/07/07 03:15:59;;;;;;;25.83;15.63;;;;;;;18.68;62.11;98852.17;125685;1093;103003;-73
2021/07/07 03:18:27;;;;;;;23.97;15.53;;;;;;;18.73;62.40;98854.38;125661;1097;103025;-73
2021/07/07 03:20:56;;;;;;;23.30;14.73;;;;;;;18.77;62.13;98852.17;125712;1093;103004;-74
2021/07/07 03:23:26;;;;;;;24.00;14.77;;;;;;;18.81;62.42;98853.52;125659;1093;103061;-73
2021/07/07 03:25:55;;;;;;;21.37;13.90;;;;;;;18.84;62.38;98858.58;125691;1093;103422;-73
2021/07/07 03:28:25;;;;;;;22.27;13.47;;;;;;;18.86;62.29;98854.69;125682;1093;102981;-73
2021/07/07 03:30:53;;;;;;;23.80;15.07;;;;;;;18.89;62.45;98864.30;125694;1093;103009;-73
2021/07/07 03:33:23;;;;;;;25.17;15.40;;;;;;;18.89;62.53;98862.42;125660;1093;103058;-73
2021/07/07 03:35:52;;;;;;;22.90;14.57;;;;;;;18.92;62.61;98868.48;125706;1093;102936;-74
2021/07/07 03:38:20;;;;;;;23.03;15.13;;;;;;;18.94;62.50;98864.63;125674;1093;102999;-73
2021/07/07 03:40:49;;;;;;;24.07;14.73;;;;;;;18.95;62.54;98868.97;125641;1093;102922;-73
2021/07/07 03:43:17;;;;;;;23.85;15.00;;;;;;;18.95;62.72;98868.97;125639;1092;102934;-73
2021/07/07 03:45:45;;;;;;;23.33;14.93;;;;;;;18.97;62.98;98872.38;125657;1093;102977;-73
2021/07/07 03:48:14;;;;;;;23.63;15.17;;;;;;;19.01;62.83;98884.50;125687;1093;103058;-73
2021/07/07 03:50:42;;;;;;;23.37;15.03;;;;;;;19.04;63.14;98877.95;125596;1096;102991;-72
2021/07/07 03:53:10;;;;;;;23.10;14.83;;;;;;;19.06;62.86;98881.31;125660;1096;103524;-73
2021/07/07 03:55:39;;;;;;;22.87;14.93;;;;;;;19.07;62.90;98877.61;125623;1095;102991;-73
2021/07/07 03:58:08;;;;;;;24.03;16.00;;;;;;;19.09;63.23;98886.36;125591;1094;103029;-73
2021/07/07 04:00:36;;;;;;;24.97;15.80;;;;;;;19.10;63.15;98887.19;125654;1093;103193;-73
2021/07/07 04:03:07;;;;;;;28.27;15.53;;;;;;;19.12;63.11;98882.47;125697;1096;103098;-73
2021/07/07 04:05:35;;;;;;;26.95;14.95;;;;;;;19.16;63.29;98886.51;125629;1095;102911;-73
2021/07/07 04:08:04;;;;;;;23.30;15.40;;;;;;;19.18;63.33;98887.17;125640;1094;102946;-77
2021/07/07 04:10:32;;;;;;;23.73;15.30;;;;;;;19.15;63.14;98885.68;125646;1093;102910;-77
2021/07/07 04:13:01;;;;;;;24.77;16.57;;;;;;;19.14;63.21;98880.45;125572;1093;102963;-77
2021/07/07 04:15:29;;;;;;;24.67;15.67;;;;;;;19.14;63.39;98886.69;125641;1093;103023;-77
2021/07/07 04:17:58;;;;;;;25.53;16.10;;;;;;;19.17;63.37;98882.80;125594;1093;103020;-80
2021/07/07 04:20:27;;;;;;;23.67;15.47;;;;;;;19.19;63.41;98888.86;125728;1093;102935;-80
2021/07/07 04:22:55;;;;;;;23.93;15.90;;;;;;;19.23;63.68;98892.05;125667;1093;102940;-78
2021/07/07 04:25:23;;;;;;;23.80;16.20;;;;;;;19.28;63.88;98889.67;125640;1097;103135;-76
2021/07/07 04:27:52;;;;;;;26.20;17.07;;;;;;;19.32;63.93;98891.88;125646;1095;103097;-74
2021/07/07 04:30:21;;;;;;;27.87;16.67;;;;;;;19.39;63.88;98901.94;125633;1096;103422;-75
2021/07/07 04:32:50;;;;;;;26.63;16.43;;;;;;;19.44;64.28;98900.43;125589;1094;103010;-69
2021/07/07 04:35:19;;;;;;;26.13;16.33;;;;;;;19.52;64.00;98901.42;125740;1097;103097;-70
2021/07/07 04:37:50;;;;;;;27.87;17.20;;;;;;;19.59;64.24;98903.24;125604;1095;102913;-74
2021/07/07 04:40:22;;;;;;;28.30;16.93;;;;;;;19.67;64.43;98905.06;125676;1096;103439;-69
2021/07/07 04:42:52;;;;;;;26.10;17.40;;;;;;;19.75;64.34;98898.81;125663;1095;102920;-70
2021/07/07 04:45:21;;;;;;;24.13;15.87;;;;;;;19.84;64.12;98905.00;125678;1097;103408;-70
2021/07/07 04:47:50;;;;;;;27.10;16.83;;;;;;;19.92;64.50;98905.83;125666;1094;103044;-69
2021/07/07 04:50:19;;;;;;;26.55;16.00;;;;;;;20.00;64.56;98904.94;125665;1093;102935;-69
2021/07/07 04:52:49;;;;;;;22.80;14.53;;;;;;;20.06;64.57;98911.50;125676;1093;102913;-70
2021/07/07 04:55:18;;;;;;;23.53;14.47;;;;;;;20.16;64.56;98914.83;125643;1095;102911;-73
2021/07/07 04:57:47;;;;;;;27.13;14.67;;;;;;;20.24;64.64;98913.93;125900;1096;103380;-74
2021/07/07 05:00:22;;;;;;;24.00;14.50;;;;;;;20.30;64.56;98912.37;125633;1096;103118;-73
2021/07/07 05:02:52;;;;;;;23.37;14.03;;;;;;;20.38;64.45;98915.02;125682;1096;103037;-73
2021/07/07 05:05:22;;;;;;;24.90;15.03;;;;;;;20.45;64.53;98917.83;125705;1093;103620;-70
2021/07/07 05:07:51;;;;;;;23.90;14.00;;;;;;;20.53;64.60;98915.94;125633;1092;103361;-75
2021/07/07 05:10:20;;;;;;;23.53;14.20;;;;;;;20.63;64.63;98915.69;125653;1096;103026;-75
2021/07/07 05:12:49;;;;;;;25.30;15.97;;;;;;;20.72;64.40;98911.05;125590;1093;102989;-75
2021/07/07 05:15:19;;;;;;;26.67;16.23;;;;;;;20.79;64.69;98914.75;125576;1093;103065;-73
2021/07/07 05:17:49;;;;;;;25.07;14.50;;;;;;;20.87;64.53;98926.52;125655;1093;103059;-74
2021/07/07 05:20:19;;;;;;;27.43;14.63;;;;;;;20.94;64.79;98922.06;125673;1093;102916;-76
2021/07/07 05:22:48;;;;;;;27.20;15.30;;;;;;;21.01;64.17;98928.39;125660;1093;102913;-75
2021/07/07 05:25:18;;;;;;;24.30;15.57;;;;;;;21.07;64.70;98924.97;125690;1094;103234;-74
2021/07/07 05:27:48;;;;;;;23.63;13.33;;;;;;;21.17;64.74;98921.17;125653;1093;103570;-74
2021/07/07 05:30:20;;;;;;;23.13;12.40;;;;;;;21.27;64.71;98924.45;125706;1093;103422;-74
2021/07/07 05:32:49;;;;;;;21.03;12.23;;;;;;;21.36;64.80;98930.61;125617;1093;103564;-75
2021/07/07 05:35:18;;;;;;;22.83;12.83;;;;;;;21.46;64.79;98928.48;125644;1093;103006;-74
2021/07/07 05:37:48;;;;;;;25.60;11.73;;;;;;;21.56;64.62;98929.05;125609;1093;102982;-75
2021/07/07 05:40:19;;;;;;;22.83;12.53;;;;;;;21.65;64.62;98932.52;125634;1092;102910;-74
2021/07/07 05:42:54;;;;;;;22.80;12.07;;;;;;;21.75;64.52;98926.00;125651;1092;102997;-75
2021/07/07 05:45:26;;;;;;;22.13;11.47;;;;;;;21.85;64.39;98931.94;125632;1095;103026;-75
2021/07/07 05:47:56;;;;;;;22.07;10.73;;;;;;;21.97;64.50;98935.85;125697;1095;103047;-75
2021/07/07 05:50:27;;;;;;;20.67;11.20;;;;;;;22.12;64.75;98937.70;125651;1096;103028;-75
2021/07/07 05:52:56;;;;;;;19.60;11.87;;;;;;;22.25;64.63;98937.84;125622;1095;103067;-75
2021/07/07 05:55:25;;;;;;;21.33;11.00;;;;;;;22.38;64.72;98941.73;125644;1093;102916;-75
2021/07/07 05:57:53;;;;;;;18.67;10.53;;;;;;;22.49;64.61;98935.86;125591;1092;102938;-74
2021/07/07 06:00:25;;;;;;;18.50;11.03;;;;;;;22.57;64.39;98938.45;125692;1096;102999;-75
2021/07/07 06:02:55;;;;;;;18.80;10.13;;;;;;;22.65;64.51;98940.19;125646;1093;102930;-75
2021/07/07 06:05:26;;;;;;;20.23;10.80;;;;;;;22.71;64.58;98939.41;125623;1093;102924;-75
2021/07/07 06:07:55;;;;;;;18.00;10.07;;;;;;;22.84;64.38;98946.83;125685;1096;103083;-74
2021/07/07 06:10:26;;;;;;;19.13;10.73;;;;;;;22.95;64.37;98940.03;125625;1093;102903;-75
2021/07/07 06:12:56;;;;;;;20.63;10.07;;;;;;;23.07;63.81;98945.75;125694;1096;103013;-74
2021/07/07 06:15:26;;;;;;;20.37;10.37;;;;;;;23.20;64.27;98940.45;125687;1096;103374;-73
2021/07/07 06:17:55;;;;;;;16.67;9.43;;;;;;;23.37;64.13;98947.48;125677;1096;102933;-75
2021/07/07 06:20:24;;;;;;;20.37;10.23;;;;;;;23.49;63.58;98945.91;125697;1096;103016;-74
2021/07/07 06:22:53;;;;;;;18.57;9.57;;;;;;;23.62;64.07;98951.42;125664;1094;102919;-76
2021/07/07 06:25:22;;;;;;;18.13;8.63;;;;;;;23.75;63.91;98947.94;125634;1096;102941;-74
2021/07/07 06:27:51;;;;;;;15.60;8.63;;;;;;;23.94;63.77;98945.50;125653;1094;103091;-75
2021/07/07 06:30:26;;;;;;;16.97;8.73;;;;;;;24.19;63.02;98945.86;125603;1093;102988;-76
2021/07/07 06:33:01;;;;;;;19.20;9.63;;;;;;;24.31;63.09;98945.27;125573;1093;103073;-76
2021/07/07 06:35:31;;;;;;;17.10;8.65;;;;;;;24.36;63.39;98949.05;125557;1093;102997;-77
2021/07/07 06:38:00;;;;;;;17.83;9.13;;;;;;;24.47;63.07;98944.88;125531;1093;102989;-74
2021/07/07 06:40:28;;;;;;;17.17;8.10;;;;;;;24.58;62.81;98946.19;126589;1093;102317;-75
2021/07/07 06:42:56;;;;;;;17.23;8.20;;;;;;;24.72;62.80;98941.63;125597;1093;102936;-75
2021/07/07 06:45:36;;;;;;;17.10;9.13;;;;;;;24.85;62.65;98939.98;125700;1093;102732;-76
2021/07/07 06:48:10;;;;;;;17.70;8.73;;;;;;;24.96;62.23;98947.50;125665;1093;103068;-74
2021/07/07 06:50:39;;;;;;;16.37;9.10;;;;;;;25.11;62.04;98939.98;125671;1093;103157;-74
2021/07/07 06:53:08;;;;;;;16.43;9.17;;;;;;;25.24;61.74;98946.47;125440;1096;102422;-73
2021/07/07 06:55:37;;;;;;;17.70;9.20;;;;;;;25.37;61.74;98942.89;125628;1093;102960;-74
2021/07/07 06:58:10;;;;;;;18.43;8.27;;;;;;;25.53;61.99;98947.08;125639;1093;103015;-74
2021/07/07 07:00:39;;;;;;;19.87;11.37;;;;;;;25.73;61.58;98936.14;125568;1093;102980;-73
2021/07/07 07:03:09;;;;;;;18.87;9.47;;;;;;;26.00;61.61;98949.66;125818;1093;102936;-75
2021/07/07 07:05:37;;;;;;;19.33;8.90;;;;;;;26.34;61.36;98944.09;125656;1092;102913;-75
2021/07/07 07:08:06;;;;;;;18.97;8.57;;;;;;;26.74;60.82;98946.58;125631;1093;102934;-75
2021/07/07 07:10:34;;;;;;;15.73;8.73;;;;;;;27.18;60.71;98952.98;125662;1093;102936;-77
2021/07/07 07:13:03;;;;;;;19.70;8.60;;;;;;;27.56;60.67;98951.18;125641;1092;102910;-76
2021/07/07 07:15:33;;;;;;;17.77;8.27;;;;;;;27.98;60.43;98945.05;125698;1093;102916;-76
2021/07/07 07:18:02;;;;;;;12.60;7.57;;;;;;;28.39;60.16;98948.13;125662;1092;102968;-78
2021/07/07 07:20:30;;;;;;;15.37;8.03;;;;;;;28.75;60.41;98956.46;125636;1093;103172;-76
2021/07/07 07:23:01;;;;;;;15.00;7.80;;;;;;;29.20;59.77;98964.20;125644;1096;103055;-75
2021/07/07 07:25:30;;;;;;;14.13;7.83;;;;;;;29.59;59.61;98955.52;125564;1093;103031;-75
2021/07/07 07:27:58;;;;;;;16.50;8.00;;;;;;;29.99;59.39;98957.51;125669;1092;102913;-75
2021/07/07 07:30:30;;;;;;;16.60;8.13;;;;;;;30.40;59.37;98964.89;125672;1093;102939;-76
2021/07/07 07:32:59;;;;;;;12.40;7.40;;;;;;;30.78;59.29;98963.42;125555;1092;103055;-75
2021/07/07 07:35:27;;;;;;;12.57;7.50;;;;;;;30.77;58.40;98961.80;125682;1093;102926;-76
2021/07/07 07:38:04;;;;;;;14.80;7.15;;;;;;;30.91;58.71;98964.20;125658;1093;102931;-76
2021/07/07 07:43:06;;;;;;;15.17;8.07;;;;;;;31.31;57.16;98958.59;125682;1093;102939;-76
2021/07/07 07:45:36;;;;;;;15.30;7.63;;;;;;;31.24;56.23;98965.31;125637;1093;102710;-76
2021/07/07 07:48:06;;;;;;;13.40;7.90;;;;;;;30.97;56.80;98964.06;125702;1093;102911;-77
2021/07/07 07:50:35;;;;;;;13.83;7.57;;;;;;;30.94;56.48;98963.70;125713;1095;103039;-77
2021/07/07 07:53:03;;;;;;;13.43;7.37;;;;;;;31.00;56.35;98966.28;125638;1093;102902;-79
2021/07/07 07:55:32;;;;;;;12.70;7.30;;;;;;;31.06;55.49;98958.13;125693;1093;103148;-79
2021/07/07 07:58:01;;;;;;;15.33;7.50;;;;;;;31.06;55.03;98958.13;125625;1093;103140;-75
2021/07/07 08:00:30;;;;;;;13.73;6.30;;;;;;;31.01;55.04;98958.89;125665;1093;103010;-77
2021/07/07 08:02:58;;;;;;;12.47;6.83;;;;;;;30.95;54.22;98960.73;125625;1093;102932;-76
2021/07/07 08:05:27;;;;;;;14.40;7.13;;;;;;;30.76;53.16;98962.02;125683;1093;102955;-76
2021/07/07 08:08:01;;;;;;;11.10;6.80;;;;;;;30.59;53.16;98960.06;125598;1096;103019;-74
2021/07/07 08:10:30;;;;;;;13.03;7.63;;;;;;;30.48;52.63;98964.51;125639;1093;103028;-74
2021/07/07 08:12:59;;;;;;;19.43;8.23;;;;;;;30.56;52.44;98974.28;125678;1094;102935;-76
2021/07/07 08:15:28;;;;;;;14.57;7.40;;;;;;;30.51;52.20;98968.69;125720;1092;102946;-76
2021/07/07 08:17:58;;;;;;;12.40;7.37;;;;;;;30.61;52.35;98968.07;125713;1093;103013;-76
2021/07/07 08:20:30;;;;;;;10.68;6.40;;;;;;;30.79;51.84;98967.84;125640;1093;102924;-76
2021/07/07 08:22:58;;;;;;;13.80;7.50;;;;;;;30.73;51.68;98974.34;125569;1093;103068;-77
2021/07/07 08:25:27;;;;;;;14.43;7.50;;;;;;;30.78;51.05;98976.34;125619;1093;103001;-77
2021/07/07 08:27:56;;;;;;;14.37;7.13;;;;;;;30.81;51.06;98975.84;125647;1093;102914;-76
2021/07/07 08:30:25;;;;;;;13.70;7.53;;;;;;;30.84;50.85;98984.41;125613;1093;102971;-77
2021/07/07 08:32:54;;;;;;;13.23;7.03;;;;;;;30.67;50.01;98978.07;125617;1093;103389;-76
2021/07/07 08:35:24;;;;;;;13.93;7.90;;;;;;;30.64;50.44;98971.14;125640;1093;102949;-77
2021/07/07 08:37:52;;;;;;;16.33;7.63;;;;;;;30.76;50.19;98981.23;125603;1093;102907;-76
2021/07/07 08:40:24;;;;;;;13.13;7.30;;;;;;;30.95;50.08;98984.59;125648;1092;102915;-76
2021/07/07 08:42:53;;;;;;;10.70;6.48;;;;;;;31.21;50.18;98979.55;125642;1092;103061;-75
2021/07/07 08:45:23;;;;;;;15.00;7.37;;;;;;;31.35;49.67;98986.38;125592;1092;102994;-76
2021/07/07 08:47:51;;;;;;;14.60;7.75;;;;;;;31.31;49.26;98979.72;125664;1093;103043;-76
2021/07/07 08:50:31;;;;;;;13.17;7.23;;;;;;;31.18;48.38;98984.45;125649;1096;102917;-76
2021/07/07 08:53:01;;;;;;;13.77;7.17;;;;;;;31.24;48.87;98982.64;125663;1093;102910;-76
2021/07/07 08:55:31;;;;;;;12.80;7.30;;;;;;;31.46;48.71;98979.97;125683;1095;102923;-76
2021/07/07 08:58:00;;;;;;;13.87;7.27;;;;;;;31.71;48.71;98984.16;125654;1096;102942;-76
2021/07/07 09:00:38;;;;;;;12.80;7.27;;;;;;;32.02;48.61;98987.34;125621;1093;103068;-76
2021/07/07 09:03:12;;;;;;;15.77;7.10;;;;;;;32.46;48.38;98989.30;125683;1094;103007;-77
2021/07/07 09:05:53;;;;;;;11.00;6.80;;;;;;;32.92;48.28;98983.44;125627;1093;103001;-76
2021/07/07 09:08:25;;;;;;;11.17;6.23;;;;;;;33.50;48.14;98985.59;125643;1096;103017;-75
2021/07/07 09:10:56;;;;;;;11.83;6.73;;;;;;;33.97;47.53;98983.95;125550;1092;102981;-76
2021/07/07 09:13:24;;;;;;;11.33;6.83;;;;;;;34.15;47.45;98990.11;125622;1093;102936;-75
2021/07/07 09:15:53;;;;;;;12.30;6.53;;;;;;;34.08;46.09;98993.09;125593;1096;102919;-76
2021/07/07 09:18:33;;;;;;;14.10;6.93;;;;;;;34.12;46.69;98994.22;125611;1094;102923;-76
2021/07/07 09:21:03;;;;;;;12.73;6.13;;;;;;;34.40;46.20;98991.28;125706;1095;102919;-77
2021/07/07 09:23:32;;;;;;;11.77;7.03;;;;;;;34.37;44.78;98997.34;125642;1097;104375;-76
2021/07/07 09:26:05;;;;;;;10.70;6.70;;;;;;;34.25;45.14;98995.64;125637;1095;102921;-75
2021/07/07 09:28:39;;;;;;;13.40;6.77;;;;;;;34.26;44.95;99002.83;125691;1093;102953;-79
2021/07/07 09:31:34;;;;;;;12.03;6.73;;;;;;;34.48;44.99;99001.84;125636;1096;103033;-75
2021/07/07 09:34:14;;;;;;;12.70;6.80;;;;;;;34.84;45.24;98998.33;125688;1096;102910;-80
2021/07/07 09:36:46;;;;;;;10.03;6.20;;;;;;;35.13;45.46;98997.83;125629;1095;103153;-78
2021/07/07 09:39:15;;;;;;;;;;;;;;;35.33;44.00;99005.28;125634;1095;102963;-78
2021/07/07 09:41:51;;;;;;;10.63;6.67;;;;;;;35.51;45.22;99008.59;125700;1093;102918;-77
2021/07/07 09:44:19;;;;;;;11.35;6.80;;;;;;;35.67;44.78;99001.94;125584;1092;103084;-80
2021/07/07 09:46:48;;;;;;;10.53;6.43;;;;;;;35.79;44.50;99009.12;125722;1094;103004;-80
2021/07/07 09:49:16;;;;;;;10.87;6.47;;;;;;;35.81;43.58;99004.13;125599;1093;103434;-76
2021/07/07 09:51:49;;;;;;;12.37;7.30;;;;;;;35.39;43.45;99006.94;125608;1093;103003;-74
2021/07/07 09:54:21;;;;;;;11.33;6.40;;;;;;;35.39;43.67;99015.23;125635;1095;102906;-76
2021/07/07 09:56:49;;;;;;;11.43;6.87;;;;;;;35.39;42.85;99011.63;125534;1093;102924;-75
2021/07/07 09:59:19;;;;;;;10.33;5.90;;;;;;;35.11;42.51;99008.32;125715;1093;103028;-76
2021/07/07 10:01:48;;;;;;;12.13;6.63;;;;;;;34.96;43.11;99003.63;125618;1093;103035;-75
2021/07/07 10:04:18;;;;;;;12.37;6.50;;;;;;;34.86;42.91;99007.99;125612;1093;103421;-76
2021/07/07 10:06:46;;;;;;;10.37;6.13;;;;;;;34.68;42.43;99006.58;125649;1091;102939;-76
2021/07/07 10:09:17;;;;;;;10.23;6.20;;;;;;;34.30;40.56;99008.66;125558;1093;102970;-78
2021/07/07 10:11:48;;;;;;;12.47;6.83;;;;;;;33.77;41.44;99003.13;125619;1093;102937;-76
2021/07/07 10:14:17;;;;;;;11.53;6.93;;;;;;;33.51;41.12;99001.04;126329;1093;103016;-75
2021/07/07 10:16:46;;;;;;;10.70;6.30;;;;;;;33.34;40.91;99005.83;125643;1093;102938;-75
2021/07/07 10:19:16;;;;;;;10.20;6.13;;;;;;;33.31;41.43;99006.36;125679;1093;103028;-74
2021/07/07 10:21:46;;;;;;;13.17;6.27;;;;;;;33.22;40.92;99006.02;125684;1093;102916;-75
2021/07/07 10:24:22;;;;;;;11.53;6.87;;;;;;;33.04;40.70;99005.30;125706;1093;103084;-77
2021/07/07 10:26:56;;;;;;;10.10;6.80;;;;;;;32.98;40.51;99011.04;125664;1092;102909;-75
2021/07/07 10:29:28;;;;;;;11.57;6.90;;;;;;;32.87;40.59;99008.18;125632;1093;102914;-76
2021/07/07 10:31:57;;;;;;;;;;;;;;;32.51;39.72;99018.79;125723;1092;103434;-76
2021/07/07 10:34:29;;;;;;;12.27;7.00;;;;;;;32.14;40.04;99008.41;125644;1093;103509;-76
2021/07/07 10:37:01;;;;;;;11.87;7.17;;;;;;;32.03;40.33;99008.27;125735;1093;103011;-77
2021/07/07 10:39:31;;;;;;;12.27;7.20;;;;;;;32.04;40.26;99017.37;125641;1093;103055;-77
2021/07/07 10:42:04;;;;;;;13.13;7.30;;;;;;;31.99;39.81;99020.89;125606;1096;102914;-77
2021/07/07 10:44:37;;;;;;;12.90;7.20;;;;;;;31.99;40.14;99009.89;125702;1093;103087;-76
2021/07/07 10:47:12;;;;;;;12.55;7.30;;;;;;;32.11;40.29;99015.27;125594;1092;102991;-76
2021/07/07 10:49:46;;;;;;;13.33;7.23;;;;;;;32.22;40.13;99017.04;125613;1095;102986;-77
2021/07/07 10:52:17;;;;;;;17.30;7.27;;;;;;;32.25;40.04;99017.62;125821;1092;103158;-76
2021/07/07 10:54:59;;;;;;;12.87;7.53;;;;;;;32.25;40.12;99014.86;125583;1093;103089;-76
2021/07/07 10:57:37;;;;;;;11.57;6.87;;;;;;;32.24;40.18;99014.05;125706;1093;103863;-77
2021/07/07 11:00:32;;;;;;;13.77;7.03;;;;;;;32.11;39.53;99011.67;125630;1096;102935;-75
2021/07/07 11:03:32;;;;;;;13.17;7.50;;;;;;;31.96;39.44;99015.05;125616;1093;102993;-74
2021/07/07 11:06:23;;;;;;;12.43;6.87;;;;;;;31.90;39.12;99014.98;125666;1093;102987;-74
2021/07/07 11:09:11;;;;;;;14.13;7.27;;;;;;;31.77;38.67;99016.18;125557;1095;103175;-76
2021/07/07 11:11:44;;;;;;;15.97;7.50;;;;;;;31.50;38.77;99009.70;125571;1093;102989;-77
2021/07/07 11:14:23;;;;;;;14.93;8.28;;;;;;;31.40;39.40;99011.20;125604;1093;102919;-76
2021/07/07 11:16:55;;;;;;;14.37;7.57;;;;;;;31.50;39.16;99015.20;125645;1093;102910;-76
2021/07/07 11:19:36;;;;;;;14.30;7.83;;;;;;;31.46;38.67;99009.35;125735;1093;103078;-75
2021/07/07 11:22:08;;;;;;;15.33;8.38;;;;;;;31.22;38.77;99011.43;125601;1093;103009;-76